createdAt,value
2022-09-12T01:25:12.650Z,100526.41
2022-09-12T02:44:50.354Z,100510.19
2022-09-12T03:07:51.303Z,100524.81
2022-09-12T03:25:50.829Z,100528.09
2022-09-12T03:30:25.308Z,100529.44
2022-09-12T03:46:00.796Z,100536.19
2022-09-12T03:56:09.451Z,100551.41
2022-09-12T04:07:47.698Z,100560.69
2022-09-12T04:25:00.506Z,100576.22
2022-09-12T04:29:36.573Z,100574.97
2022-09-12T04:35:25.415Z,100592.56
2022-09-12T04:58:11.692Z,100614.22
2022-09-12T05:08:47.229Z,100635.09
2022-09-12T05:13:34.421Z,100631.66
2022-09-12T05:29:10.953Z,100628.13
2022-09-12T06:25:51.282Z,100638.81
2022-09-12T06:30:41.361Z,100638.13
2022-09-12T06:35:55.384Z,100605.84
2022-09-12T06:41:00.537Z,100626.69
2022-09-12T06:46:41.752Z,100628.50
2022-09-12T07:19:41.643Z,100624.81
2022-09-12T07:24:42.623Z,100619.91
2022-09-12T07:52:49.557Z,100627.19
2022-09-12T08:03:36.231Z,100619.81
2022-09-12T08:07:57.857Z,100616.53
2022-09-12T08:23:58.362Z,100606.44
2022-09-12T09:45:42.334Z,100514.16
2022-09-12T10:02:35.958Z,100522.59
2022-09-12T10:06:56.513Z,100522.81
2022-09-12T10:11:25.500Z,100519.91
2022-09-12T10:15:51.096Z,100506.22
2022-09-12T10:26:48.140Z,100511.31
2022-09-12T14:08:25.692Z,100413.19
2022-09-12T14:12:29.926Z,100416.97
2022-09-12T14:47:03.571Z,100409.75
2022-09-12T15:44:02.025Z,100448.44
2022-09-12T17:36:11.520Z,100566.88
2022-09-12T17:40:28.809Z,100593.59
2022-09-12T17:44:43.823Z,100588.25
2022-09-12T17:49:14.813Z,100584.94
2022-09-12T17:53:25.588Z,100590.72
2022-09-12T17:57:27.014Z,100600.97
2022-09-12T18:01:47.287Z,100600.88
2022-09-12T18:05:50.413Z,100571.94
2022-09-12T18:09:54.741Z,100584.63
2022-09-12T18:14:03.984Z,100607.28
2022-09-12T18:18:06.784Z,100609.34
2022-09-12T18:22:09.674Z,100593.63
2022-09-12T18:26:14.917Z,100596.56
2022-09-12T18:30:21.832Z,100598.16
2022-09-12T18:34:23.884Z,100580.84
2022-09-12T18:38:31.009Z,100590.56
2022-09-12T18:42:35.020Z,100568.50
2022-09-12T18:46:39.935Z,100605.66
2022-09-12T18:50:41.393Z,100587.59
2022-09-12T18:54:44.390Z,100601.22
2022-09-12T18:59:00.596Z,100589.03
2022-09-12T19:03:15.066Z,100602.56
2022-09-12T19:07:23.180Z,100583.59
2022-09-12T19:11:28.630Z,100612.41
2022-09-12T19:15:46.317Z,100599.22
2022-09-12T19:20:23.674Z,100619.94
2022-09-12T19:24:53.505Z,100547.63
2022-09-12T19:28:59.361Z,100615.44
2022-09-12T19:33:03.280Z,100632.13
2022-09-12T19:37:15.079Z,100638.59
2022-09-12T19:41:36.204Z,100642.94
2022-09-12T19:45:55.340Z,100636.81
2022-09-12T19:50:11.075Z,100616.53
2022-09-12T19:54:56.241Z,100635.44
2022-09-12T20:04:34.001Z,100647.38
2022-09-12T20:09:20.239Z,100648.72
2022-09-12T20:18:59.701Z,100660.91
2022-09-12T20:23:48.467Z,100664.38
2022-09-12T20:29:16.147Z,100651.91
2022-09-12T20:34:47.312Z,100653.66
2022-09-12T20:49:33.493Z,100692.13
2022-09-12T20:55:12.064Z,100698.81
2022-09-12T21:03:57.433Z,100702.47
2022-09-12T21:13:15.050Z,100703.84
2022-09-12T21:17:33.358Z,100709.13
2022-09-12T21:21:35.141Z,100712.38
2022-09-12T21:25:52.226Z,100712.47
2022-09-12T21:30:59.284Z,100702.34
2022-09-12T21:35:56.231Z,100724.84
2022-09-12T21:40:26.240Z,100709.50
2022-09-12T21:44:57.825Z,100704.91
2022-09-12T21:49:17.117Z,100732.44
2022-09-12T21:53:49.121Z,100726.16
2022-09-12T21:57:53.294Z,100724.59
2022-09-12T22:02:31.225Z,100726.59
2022-09-12T22:06:53.085Z,100722.78
2022-09-12T22:11:21.117Z,100743.69
2022-09-12T22:16:47.842Z,100747.31
2022-09-12T22:22:15.356Z,100747.13
2022-09-12T22:58:44.571Z,100745.34
2022-09-12T23:03:14.015Z,100731.44
2022-09-12T23:07:57.173Z,100755.22
2022-09-12T23:12:29.305Z,100751.59
2022-09-12T23:17:07.941Z,100744.59
2022-09-12T23:21:47.897Z,100728.31
2022-09-12T23:26:11.275Z,100745.81
2022-09-12T23:30:25.935Z,100741.44
2022-09-12T23:34:47.740Z,100718.22
2022-09-12T23:38:53.605Z,100730.41
2022-09-12T23:43:46.507Z,100711.31
2022-09-12T23:48:28.977Z,100731.25
2022-09-12T23:52:46.982Z,100745.31
2022-09-12T23:56:59.808Z,100711.31
